Laredo, TX

10:40 PM CDT en Octubre 20, 2014 (GMT -0500)
Laredo International | Change Station
CLOSE
Current Station
Aeropuerto
Location: Laredo,
Altura: 509 ft
Estaciones meteorológicas cercanas

Alt 509 ft 27.54 °N, 99.46 °W | Updated 44 minutes ago

Parcialmente nublado
Parcialmente nublado
74 ° F
Sensación térmica 74 ° F
N
8
Viento Variable Viento desde ENE

Hoy
Alta -- | Baja -- ° F
--% Posibilidad de precipitaciones
Ayer
Alta -- | Baja -- ° F
Precip. -- pul
7:40 AM 7:03 PM
Creciente menguante, 7% visible
Presión 29.98 pul
Visibilidad 10.0 Millas
Nubes Despejado
Punto de rocío 66 ° F
Humedad 76%
Precipitaciones 0.00 pul
Espesor de la nieve No disponible.
UV 0 de una escala de 12
Polen 7.10 de una escala de 12
Ozono Buena
PM2.5 Buena
Flu Activity Sporadic
METAR KLRD 210256Z 07007KT 10SM CLR 23/19 A3001 RMK AO2 53016 T02330188 SLP151

More Conditions Fewer Conditions

Presión 29.98 pul
Visibilidad 10.0 Millas
Nubes Despejado
Punto de rocío 66 ° F
Humedad 76%
Precipitaciones 0.00 pul
Espesor de la nieve No disponible.
UV 0 de una escala de 12
Polen 7.10 de una escala de 12
Ozono Buena
PM2.5 Buena
Flu Activity Sporadic
METAR KLRD 210256Z 07007KT 10SM CLR 23/19 A3001 RMK AO2 53016 T02330188 SLP151

More Conditions Fewer Conditions

10-Day Weather Forecast

Almanac

Astronomía

Oct. 20, 2014 Salida Puesta
Hora real 7:40 AM CDT 7:03 PM CDT
Crepúsculo civil 7:17 AM CDT 7:27 PM CDT
Crepúsculo náutico 6:49 AM CDT 7:54 PM CDT
Crepúsculo astronómico 6:22 AM CDT 8:22 PM CDT
Luna 4:46 AM CDT (10/20) 5:13 PM CDT (10/20)
Horas de luz 12h 10m
Horas de luz
11h 23m
Tomorrow will be 1m 31s shorter.
Creciente menguante, 7% of the Moon is Illuminated
Hoy
Creciente menguante
Oct 23
Nueva
Oct 30
Cuarto creciente
Nov 6
Luna llena
Nov 14
Cuarto menguante

Extremos de hoy

Máximos del estado Bajos del estado

Community

WunderPhotos

Upload Photos

1,763,594 ¡fotos cargadas!

Nearby

Calidad del aire

  Calidad del aire Índice AQ Contaminante
Ayer Buena
OZONE
Ayer Buena
PM2.5
Real Buena
PM2.5
Real Buena
OZONE
Lunes Buena
PM10
Lunes Buena
OZONE
Martes Buena
PM10
Martes Buena
OZONE
Miércoles Buena
PM10
Miércoles Buena
OZONE
Jueves Buena
PM10
Jueves Buena
OZONE

Grosos de nieve

Estación Profundido Altura
No tenemos constancia de nieve nueva.

Actividad de terremotos

Ciudad Distance Mag. Tiempo y dato
No hay informes recientes de la actividad sísmica.
Magnitud mínima muestra es 2,5.

Temperaturas de aguas costeras

Lugar Temperatura
Sin partes meteorológicos de las estaciones

Estaciones meteorológicas cercanas